Hlavní strana
METAR-TAF:

METAR-TAF

Letiště :

Burlington-Alamance Regional Airport

Burlington, Severní Karolína, Spojené státy americké

zeměpisná šířka: 36-02-52N, zeměpisná délka: 079-28-26W, výška: 188 m

Aktuální stav počasí

Zpráva byla vytvořena před 43 minutami, v 15:54 UTC
Západní vítr 21 kt s nárazy do 26 kt
Teplota 7°C
Vlhkost vzduchu 33%
Tlak 1016 hPa
Viditelnost: 16.1 km
Jasno

METAR: KBUY 271554Z AUTO 26021G26KT 10SM CLR 07/M08 A3000 RMK AO2 PK WND 31031/1538 SLP159 T00671083

Čas: 11:37 (16:37 UTC)


TAF: chybějící

Stav a předpovědi počasí z více než 4 000 letišť (zprávy METAR a TAF).

Červené a žluté tečky na mapě představují dostupné meteorologické stanice.

Když kurzor umístíte na tečku, zobrazí se název stanice.

Pak kliknutím zobrazíte stav a předpověď počasí.

Chcete-li změnit mapu, kliknutím na zelené tlačítko se znaménkem +mapu přiblížíte, kliknutím na zelené tlačítko se znaménkem – mapu oddálíte a kliknutím na zelené šipky přejdete na sousední mapy.


METAR-TAF: